Time;durP1;ratioP1;P1;durP2;ratioP2;P2;SDS_P1;SDS_P2;PMS_P1;PMS_P2;Temp;Humidity;BMP_temperature;BMP_pressure;BME280_temperature;BME280_humidity;BME280_pressure;Samples;Min_cycle;Max_cycle;Signal;HPM_P1;HPM_P2
2023/05/26 00:01:21;;;;;;;20.53;4.93;;;;;;;;;;4962301;28;20682;-71
2023/05/26 00:03:48;;;;;;;22.27;3.60;;;;;;;;;;4963750;28;20625;-70
2023/05/26 00:06:14;;;;;;;20.50;4.60;;;;;;;;;;4956613;28;20216;-70
2023/05/26 00:08:39;;;;;;;20.33;3.97;;;;;;;;;;4965308;28;20184;-70
2023/05/26 00:11:05;;;;;;;15.63;3.90;;;;;;;;;;4969975;28;20670;-70
2023/05/26 00:13:30;;;;;;;12.70;3.50;;;;;;;;;;4966570;28;20665;-70
2023/05/26 00:15:55;;;;;;;16.00;3.47;;;;;;;;;;4969853;28;20200;-70
2023/05/26 00:18:20;;;;;;;19.07;4.97;;;;;;;;;;4969857;28;20189;-70
2023/05/26 00:20:46;;;;;;;17.13;3.90;;;;;;;;;;4968965;28;20180;-70
2023/05/26 00:23:11;;;;;;;19.83;3.93;;;;;;;;;;4961354;28;20172;-70
2023/05/26 00:25:36;;;;;;;10.77;3.17;;;;;;;;;;4976851;28;20259;-70
2023/05/26 00:28:01;;;;;;;15.33;3.77;;;;;;;;;;4962674;28;20213;-70
2023/05/26 00:30:27;;;;;;;14.93;3.30;;;;;;;;;;4962983;28;20181;-70
2023/05/26 00:32:52;;;;;;;20.50;3.90;;;;;;;;;;4962818;28;20271;-71
2023/05/26 00:35:17;;;;;;;17.77;4.13;;;;;;;;;;4962434;28;20203;-70
2023/05/26 00:37:43;;;;;;;19.57;4.63;;;;;;;;;;4963336;28;20188;-71
2023/05/26 00:40:08;;;;;;;15.97;3.17;;;;;;;;;;4963768;28;20887;-70
2023/05/26 00:42:33;;;;;;;20.17;5.10;;;;;;;;;;4943471;28;20196;-71
2023/05/26 00:44:59;;;;;;;19.30;4.20;;;;;;;;;;4950500;28;20755;-71
2023/05/26 00:47:24;;;;;;;25.97;4.50;;;;;;;;;;4951088;28;20290;-70
2023/05/26 00:49:49;;;;;;;13.33;3.83;;;;;;;;;;4981859;28;20211;-71
2023/05/26 00:52:14;;;;;;;18.97;4.10;;;;;;;;;;4950184;28;21495;-71
2023/05/26 00:54:42;;;;;;;19.47;4.30;;;;;;;;;;4951088;28;20574;-70
2023/05/26 00:57:07;;;;;;;15.93;5.13;;;;;;;;;;4953661;28;20180;-70
2023/05/26 00:59:32;;;;;;;19.53;4.60;;;;;;;;;;4953233;28;21730;-70
2023/05/26 01:01:58;;;;;;;16.90;4.57;;;;;;;;;;4954492;28;20615;-70
2023/05/26 01:04:24;;;;;;;17.37;3.93;;;;;;;;;;4953794;28;20215;-70
2023/05/26 01:06:50;;;;;;;18.17;4.10;;;;;;;;;;4952782;28;20255;-71
2023/05/26 01:09:16;;;;;;;16.90;5.37;;;;;;;;;;4953483;28;20227;-71
2023/05/26 01:12:01;;;;;;;15.43;4.07;;;;;;;;;;4952774;28;20614;-70
2023/05/26 01:14:35;;;;;;;26.47;5.33;;;;;;;;;;4957797;28;20601;-70
2023/05/26 01:17:07;;;;;;;14.53;4.60;;;;;;;;;;4954696;28;20715;-71
2023/05/26 01:20:07;;;;;;;18.43;3.40;;;;;;;;;;4953634;28;20184;-70
2023/05/26 01:22:38;;;;;;;24.27;4.90;;;;;;;;;;4940584;28;20201;-70
2023/05/26 01:25:26;;;;;;;15.40;5.80;;;;;;;;;;4955571;28;20286;-70
2023/05/26 01:28:10;;;;;;;19.53;4.47;;;;;;;;;;4951918;28;20240;-70
2023/05/26 01:30:35;;;;;;;17.87;3.90;;;;;;;;;;4955595;28;20208;-70
2023/05/26 01:33:01;;;;;;;15.63;4.20;;;;;;;;;;4954029;28;20280;-70
2023/05/26 01:35:26;;;;;;;19.80;3.63;;;;;;;;;;4956241;28;20687;-70
2023/05/26 01:37:52;;;;;;;16.40;3.90;;;;;;;;;;4953812;28;20235;-70
2023/05/26 01:40:17;;;;;;;17.03;3.23;;;;;;;;;;4952934;28;20188;-70
2023/05/26 01:42:45;;;;;;;21.73;4.90;;;;;;;;;;4954081;28;20196;-70
2023/05/26 01:45:15;;;;;;;23.03;4.00;;;;;;;;;;4951633;28;20227;-70
2023/05/26 01:47:42;;;;;;;18.63;4.07;;;;;;;;;;4951370;28;20299;-70
2023/05/26 01:50:08;;;;;;;20.13;4.23;;;;;;;;;;4953634;28;20204;-70
2023/05/26 01:52:35;;;;;;;22.47;4.13;;;;;;;;;;4953623;28;20184;-70
2023/05/26 01:55:01;;;;;;;17.17;4.30;;;;;;;;;;4953511;28;20694;-70
2023/05/26 01:57:26;;;;;;;16.37;4.40;;;;;;;;;;4953733;28;20812;-70
2023/05/26 01:59:52;;;;;;;17.77;4.97;;;;;;;;;;4950942;28;20227;-70
2023/05/26 02:02:17;;;;;;;15.13;3.50;;;;;;;;;;4953027;28;20899;-70
2023/05/26 02:04:42;;;;;;;12.73;3.60;;;;;;;;;;4952388;28;20299;-70
2023/05/26 02:07:08;;;;;;;14.40;4.50;;;;;;;;;;4951398;28;20339;-70
2023/05/26 02:09:33;;;;;;;18.63;4.23;;;;;;;;;;4952341;28;20187;-70
2023/05/26 02:11:58;;;;;;;18.63;4.13;;;;;;;;;;4951879;28;20195;-70
2023/05/26 02:14:23;;;;;;;23.13;4.83;;;;;;;;;;4953172;28;20447;-70
2023/05/26 02:16:49;;;;;;;17.07;4.37;;;;;;;;;;4952612;28;20184;-70
2023/05/26 02:19:14;;;;;;;19.33;4.83;;;;;;;;;;4952896;28;20195;-69
2023/05/26 02:21:40;;;;;;;17.90;4.57;;;;;;;;;;4951828;28;20211;-70
2023/05/26 02:24:05;;;;;;;23.70;5.27;;;;;;;;;;4953814;28;21797;-70
2023/05/26 02:26:30;;;;;;;15.77;3.13;;;;;;;;;;4952834;28;20215;-70
2023/05/26 02:28:56;;;;;;;17.63;5.63;;;;;;;;;;4953136;28;20730;-70
2023/05/26 02:31:22;;;;;;;14.43;3.97;;;;;;;;;;4952951;28;20184;-70
2023/05/26 02:33:47;;;;;;;13.67;4.07;;;;;;;;;;4953415;28;20188;-70
2023/05/26 02:36:13;;;;;;;20.97;4.23;;;;;;;;;;4954819;28;20227;-69
2023/05/26 02:38:39;;;;;;;23.17;4.77;;;;;;;;;;4952465;28;20674;-69
2023/05/26 02:41:04;;;;;;;16.00;4.07;;;;;;;;;;4953086;28;20308;-69
2023/05/26 02:43:29;;;;;;;20.80;4.97;;;;;;;;;;4954652;28;20654;-69
2023/05/26 02:45:55;;;;;;;17.53;4.93;;;;;;;;;;4952680;28;20212;-70
2023/05/26 02:48:20;;;;;;;21.90;3.83;;;;;;;;;;4950809;28;20184;-70
2023/05/26 02:50:45;;;;;;;22.43;4.77;;;;;;;;;;4952845;28;20260;-70
2023/05/26 02:53:10;;;;;;;12.40;3.90;;;;;;;;;;4952241;28;20188;-70
2023/05/26 02:55:35;;;;;;;34.97;5.10;;;;;;;;;;4968095;28;20199;-70
2023/05/26 02:58:01;;;;;;;12.90;4.07;;;;;;;;;;4952004;28;20184;-70
2023/05/26 03:00:26;;;;;;;19.00;4.93;;;;;;;;;;4951942;28;20181;-70
2023/05/26 03:02:51;;;;;;;14.17;5.00;;;;;;;;;;4952328;28;20499;-70
2023/05/26 03:05:17;;;;;;;23.37;4.60;;;;;;;;;;4950982;28;20218;-70
2023/05/26 03:07:42;;;;;;;19.37;4.67;;;;;;;;;;4952380;28;20323;-70
2023/05/26 03:10:08;;;;;;;20.53;4.37;;;;;;;;;;4952026;28;20243;-71
2023/05/26 03:12:33;;;;;;;15.93;4.40;;;;;;;;;;4952065;28;20183;-70
2023/05/26 03:14:58;;;;;;;12.67;3.63;;;;;;;;;;4953427;28;20358;-70
2023/05/26 03:17:23;;;;;;;14.23;4.00;;;;;;;;;;4950488;28;20193;-70
2023/05/26 03:19:49;;;;;;;14.57;3.33;;;;;;;;;;4950814;28;20180;-71
2023/05/26 03:22:14;;;;;;;25.10;5.20;;;;;;;;;;4951937;28;20224;-70
2023/05/26 03:24:39;;;;;;;18.77;3.93;;;;;;;;;;4951321;28;20212;-70
2023/05/26 03:27:05;;;;;;;23.10;3.90;;;;;;;;;;4951792;28;20813;-70
2023/05/26 03:29:30;;;;;;;21.63;5.07;;;;;;;;;;4950682;28;20181;-70
2023/05/26 03:31:56;;;;;;;12.33;3.43;;;;;;;;;;4952309;28;20172;-71
2023/05/26 03:34:21;;;;;;;14.00;3.57;;;;;;;;;;4949936;28;20271;-70
2023/05/26 03:36:48;;;;;;;14.93;4.07;;;;;;;;;;4950542;28;20231;-70
2023/05/26 03:39:14;;;;;;;15.80;3.53;;;;;;;;;;4950213;28;20206;-70
2023/05/26 03:41:39;;;;;;;16.03;3.37;;;;;;;;;;4952504;28;20191;-70
2023/05/26 03:44:05;;;;;;;15.83;4.43;;;;;;;;;;4968527;28;21607;-70
2023/05/26 03:46:30;;;;;;;11.97;3.90;;;;;;;;;;4971185;28;20196;-70
2023/05/26 03:48:55;;;;;;;15.30;4.17;;;;;;;;;;4970878;28;20587;-70
2023/05/26 03:51:20;;;;;;;14.87;4.07;;;;;;;;;;4971431;28;20196;-70
2023/05/26 03:53:46;;;;;;;18.00;4.47;;;;;;;;;;4970779;28;20245;-71
2023/05/26 03:56:11;;;;;;;13.67;3.07;;;;;;;;;;4968923;28;20682;-70
2023/05/26 03:58:36;;;;;;;17.10;3.93;;;;;;;;;;4952847;28;20190;-71
2023/05/26 04:01:03;;;;;;;19.60;3.47;;;;;;;;;;4951823;28;20204;-70
2023/05/26 04:03:28;;;;;;;20.93;3.50;;;;;;;;;;4949907;28;20244;-70
2023/05/26 04:05:54;;;;;;;15.27;3.63;;;;;;;;;;4949501;28;20216;-70
2023/05/26 04:08:19;;;;;;;16.03;4.67;;;;;;;;;;4963298;28;20910;-70
2023/05/26 04:10:44;;;;;;;19.00;4.57;;;;;;;;;;4950848;28;20168;-70
2023/05/26 04:13:09;;;;;;;19.87;4.10;;;;;;;;;;4950139;28;20218;-70
2023/05/26 04:15:34;;;;;;;8.97;3.97;;;;;;;;;;4948352;28;20298;-70
2023/05/26 04:18:00;;;;;;;11.07;3.10;;;;;;;;;;4952349;28;20338;-71
2023/05/26 04:20:25;;;;;;;19.47;4.77;;;;;;;;;;4950848;28;20887;-71
2023/05/26 04:22:50;;;;;;;16.70;3.50;;;;;;;;;;4951664;28;20231;-71
2023/05/26 04:25:15;;;;;;;12.90;3.33;;;;;;;;;;4947345;28;20255;-71
2023/05/26 04:27:42;;;;;;;21.80;4.27;;;;;;;;;;4950322;28;20214;-71
2023/05/26 04:30:08;;;;;;;18.83;3.97;;;;;;;;;;4950936;28;20184;-71
2023/05/26 04:32:33;;;;;;;18.23;4.03;;;;;;;;;;4955249;28;20669;-71
2023/05/26 04:34:58;;;;;;;19.07;3.53;;;;;;;;;;4984894;28;20255;-71
2023/05/26 04:37:24;;;;;;;16.93;4.13;;;;;;;;;;4954941;28;20192;-71
2023/05/26 04:39:49;;;;;;;14.47;3.20;;;;;;;;;;4954678;28;20215;-71
2023/05/26 04:42:15;;;;;;;18.13;5.87;;;;;;;;;;4955211;28;20180;-71
2023/05/26 04:44:40;;;;;;;20.33;3.80;;;;;;;;;;4954951;28;20212;-71
2023/05/26 04:47:09;;;;;;;20.67;5.70;;;;;;;;;;4954650;28;20208;-70
2023/05/26 04:49:35;;;;;;;16.60;4.57;;;;;;;;;;4954180;28;20184;-70
2023/05/26 04:52:01;;;;;;;12.80;3.93;;;;;;;;;;4954499;28;20176;-70
2023/05/26 04:54:26;;;;;;;10.57;3.33;;;;;;;;;;4987307;28;20283;-70
2023/05/26 04:56:53;;;;;;;20.47;3.23;;;;;;;;;;4954075;28;20949;-70
2023/05/26 04:59:21;;;;;;;13.77;3.70;;;;;;;;;;4954572;28;20200;-70
2023/05/26 05:01:46;;;;;;;18.03;4.03;;;;;;;;;;4955516;28;20699;-70
2023/05/26 05:04:12;;;;;;;19.13;4.77;;;;;;;;;;4954682;28;20357;-70
2023/05/26 05:06:37;;;;;;;15.03;3.43;;;;;;;;;;4954446;28;20704;-70
2023/05/26 05:09:03;;;;;;;20.17;4.43;;;;;;;;;;4952091;28;20188;-70
2023/05/26 05:11:28;;;;;;;17.73;4.53;;;;;;;;;;4953821;28;20189;-70
2023/05/26 05:13:53;;;;;;;15.53;4.70;;;;;;;;;;4955935;28;21761;-70
2023/05/26 05:16:18;;;;;;;17.60;3.93;;;;;;;;;;4962872;28;20200;-70
2023/05/26 05:18:44;;;;;;;15.37;3.37;;;;;;;;;;4955706;28;20188;-70
2023/05/26 05:21:09;;;;;;;16.23;4.43;;;;;;;;;;4952470;28;20907;-70
2023/05/26 05:23:34;;;;;;;12.70;3.40;;;;;;;;;;4954836;28;20180;-70
2023/05/26 05:26:00;;;;;;;12.30;4.00;;;;;;;;;;4952589;28;21164;-70
2023/05/26 05:28:26;;;;;;;17.50;3.40;;;;;;;;;;4951335;28;20561;-70
2023/05/26 05:30:51;;;;;;;15.07;3.47;;;;;;;;;;4951473;28;20183;-70
2023/05/26 05:33:16;;;;;;;20.57;4.70;;;;;;;;;;4954221;28;20524;-70
2023/05/26 05:35:41;;;;;;;14.23;4.13;;;;;;;;;;4952278;28;21014;-70
2023/05/26 05:38:07;;;;;;;9.13;3.27;;;;;;;;;;4953106;28;20283;-70
2023/05/26 05:40:32;;;;;;;15.13;4.43;;;;;;;;;;4952717;28;20185;-70
2023/05/26 05:42:57;;;;;;;17.10;3.50;;;;;;;;;;4953353;28;20638;-70
2023/05/26 05:45:22;;;;;;;17.50;3.83;;;;;;;;;;4951081;28;20295;-70
2023/05/26 05:47:48;;;;;;;16.87;3.97;;;;;;;;;;4951830;28;20216;-70
2023/05/26 05:50:13;;;;;;;21.63;4.20;;;;;;;;;;4953166;28;20183;-70
2023/05/26 05:52:38;;;;;;;16.17;3.43;;;;;;;;;;4951917;28;20540;-70
2023/05/26 05:55:03;;;;;;;15.30;4.03;;;;;;;;;;4953291;28;20653;-71
2023/05/26 05:57:29;;;;;;;17.33;3.50;;;;;;;;;;4953182;28;20193;-71
2023/05/26 05:59:54;;;;;;;26.87;4.50;;;;;;;;;;4952896;28;20666;-71
2023/05/26 06:02:19;;;;;;;19.67;3.67;;;;;;;;;;4953197;28;20184;-71
2023/05/26 06:04:44;;;;;;;13.23;3.70;;;;;;;;;;4952187;28;20771;-71
2023/05/26 06:07:09;;;;;;;17.87;4.17;;;;;;;;;;4954231;28;20204;-71
2023/05/26 06:09:35;;;;;;;19.53;4.90;;;;;;;;;;4966311;28;20184;-70
2023/05/26 06:12:01;;;;;;;14.77;4.13;;;;;;;;;;4967133;28;20173;-71
2023/05/26 06:14:27;;;;;;;16.07;3.57;;;;;;;;;;4969349;28;20176;-70
2023/05/26 06:16:52;;;;;;;23.93;4.37;;;;;;;;;;4999235;28;20693;-70
2023/05/26 06:19:17;;;;;;;14.63;4.27;;;;;;;;;;4967385;28;20177;-71
2023/05/26 06:21:42;;;;;;;17.07;3.57;;;;;;;;;;4969168;28;20184;-71
2023/05/26 06:24:08;;;;;;;20.47;4.40;;;;;;;;;;4973034;28;20662;-71
2023/05/26 06:26:33;;;;;;;20.53;4.87;;;;;;;;;;4994455;22;20234;-72
2023/05/26 06:28:58;;;;;;;19.77;4.60;;;;;;;;;;4990283;28;20184;-72
2023/05/26 06:31:25;;;;;;;17.73;4.47;;;;;;;;;;4992927;28;20281;-72
2023/05/26 06:33:50;;;;;;;13.95;4.45;;;;;;;;;;4991612;28;20267;-72
2023/05/26 06:36:15;;;;;;;28.05;4.25;;;;;;;;;;4977690;28;20287;-72
2023/05/26 06:38:41;;;;;;;13.40;3.92;;;;;;;;;;4970575;28;20263;-72
2023/05/26 06:41:06;;;;;;;18.60;4.72;;;;;;;;;;4974593;28;20591;-71
2023/05/26 06:43:32;;;;;;;19.30;4.25;;;;;;;;;;4974915;28;20580;-72
2023/05/26 06:45:57;;;;;;;9.68;3.70;;;;;;;;;;4977259;28;20279;-73
2023/05/26 06:48:22;;;;;;;19.20;3.65;;;;;;;;;;4971918;28;20262;-71
2023/05/26 06:50:47;;;;;;;24.38;4.28;;;;;;;;;;4975891;28;20646;-72
2023/05/26 06:53:12;;;;;;;12.13;2.90;;;;;;;;;;4977398;28;20185;-72
2023/05/26 06:55:38;;;;;;;11.45;3.65;;;;;;;;;;4979288;28;20200;-71
2023/05/26 06:58:03;;;;;;;14.07;3.40;;;;;;;;;;4977790;28;20188;-71
2023/05/26 07:00:29;;;;;;;18.00;3.65;;;;;;;;;;4974324;28;20172;-72
2023/05/26 07:02:55;;;;;;;30.25;4.03;;;;;;;;;;4973251;28;20180;-72
2023/05/26 07:05:20;;;;;;;10.75;3.30;;;;;;;;;;4969388;28;20686;-72
2023/05/26 07:07:45;;;;;;;10.68;3.08;;;;;;;;;;4976264;28;20236;-72
2023/05/26 07:10:10;;;;;;;16.00;3.78;;;;;;;;;;4976813;28;20184;-72
2023/05/26 07:12:35;;;;;;;9.40;3.35;;;;;;;;;;4977173;28;20259;-71
2023/05/26 07:15:01;;;;;;;14.63;3.17;;;;;;;;;;4969257;28;20200;-71
2023/05/26 07:17:26;;;;;;;10.02;2.85;;;;;;;;;;4970572;28;20725;-71
2023/05/26 07:19:51;;;;;;;14.27;3.25;;;;;;;;;;4969691;28;20193;-71
2023/05/26 07:22:16;;;;;;;13.93;3.15;;;;;;;;;;4969777;28;20178;-72
2023/05/26 07:24:41;;;;;;;9.82;3.33;;;;;;;;;;4969041;28;20204;-72
2023/05/26 07:27:07;;;;;;;16.27;4.43;;;;;;;;;;4970729;28;20216;-72
2023/05/26 07:29:32;;;;;;;23.13;3.97;;;;;;;;;;4970901;28;20180;-72
2023/05/26 07:31:57;;;;;;;13.70;3.55;;;;;;;;;;4969100;28;20188;-72
2023/05/26 07:34:23;;;;;;;17.63;3.42;;;;;;;;;;4985083;28;20173;-73
2023/05/26 07:36:48;;;;;;;13.63;4.03;;;;;;;;;;4971886;28;20682;-72
2023/05/26 07:39:13;;;;;;;16.30;2.90;;;;;;;;;;4970212;28;20203;-71
2023/05/26 07:41:38;;;;;;;11.23;3.17;;;;;;;;;;4970611;28;20702;-72
2023/05/26 07:44:04;;;;;;;15.00;4.05;;;;;;;;;;4971690;28;20180;-72
2023/05/26 07:46:29;;;;;;;11.82;3.33;;;;;;;;;;4986445;28;20296;-71
2023/05/26 07:48:54;;;;;;;13.88;3.50;;;;;;;;;;4970873;28;20176;-71
2023/05/26 07:51:19;;;;;;;13.63;3.53;;;;;;;;;;4987105;28;20180;-72
2023/05/26 07:53:45;;;;;;;10.32;3.83;;;;;;;;;;4970780;28;20181;-72
2023/05/26 07:56:10;;;;;;;12.98;3.00;;;;;;;;;;4971418;28;20208;-71
2023/05/26 07:58:38;;;;;;;10.13;2.80;;;;;;;;;;4974091;28;20199;-72
2023/05/26 08:01:04;;;;;;;10.95;2.90;;;;;;;;;;4974345;28;20183;-72
2023/05/26 08:03:29;;;;;;;11.73;3.33;;;;;;;;;;4971410;28;20176;-73
2023/05/26 08:05:54;;;;;;;13.07;3.35;;;;;;;;;;4970722;28;20197;-72
2023/05/26 08:08:19;;;;;;;10.40;3.03;;;;;;;;;;4971585;28;20269;-73
2023/05/26 08:10:45;;;;;;;13.95;4.65;;;;;;;;;;4970853;28;20191;-72
2023/05/26 08:13:10;;;;;;;11.27;3.45;;;;;;;;;;4969400;28;20196;-73
2023/05/26 08:15:35;;;;;;;8.75;3.38;;;;;;;;;;4970631;28;20196;-73
2023/05/26 08:18:00;;;;;;;11.02;2.78;;;;;;;;;;4970665;28;20180;-71
2023/05/26 08:20:26;;;;;;;13.57;2.97;;;;;;;;;;4971456;28;20607;-72
2023/05/26 08:22:51;;;;;;;9.52;2.88;;;;;;;;;;4971794;28;20195;-72
2023/05/26 08:25:16;;;;;;;13.55;3.13;;;;;;;;;;4970145;28;20752;-72
2023/05/26 08:27:41;;;;;;;12.27;3.30;;;;;;;;;;4970274;28;20204;-71
2023/05/26 08:30:07;;;;;;;10.15;2.97;;;;;;;;;;4969511;28;20176;-71
2023/05/26 08:32:34;;;;;;;8.45;2.55;;;;;;;;;;4969045;28;20227;-71
2023/05/26 08:34:59;;;;;;;9.48;3.35;;;;;;;;;;4970840;28;20196;-72
2023/05/26 08:37:24;;;;;;;13.93;5.22;;;;;;;;;;4968518;28;20204;-72
2023/05/26 08:39:49;;;;;;;14.25;3.90;;;;;;;;;;4971500;28;20562;-72
2023/05/26 08:42:18;;;;;;;13.38;3.05;;;;;;;;;;4969507;28;20220;-72
2023/05/26 08:44:44;;;;;;;13.38;3.03;;;;;;;;;;4970709;28;20192;-72
2023/05/26 08:47:11;;;;;;;14.82;3.65;;;;;;;;;;4971435;28;20204;-71
2023/05/26 08:49:40;;;;;;;16.40;3.10;;;;;;;;;;4969548;28;20614;-72
2023/05/26 08:52:08;;;;;;;8.13;2.70;;;;;;;;;;4970774;28;20665;-72
2023/05/26 08:54:34;;;;;;;10.40;3.33;;;;;;;;;;4970941;28;20639;-72
2023/05/26 08:57:01;;;;;;;10.48;3.15;;;;;;;;;;4970343;28;20219;-72
2023/05/26 08:59:28;;;;;;;7.85;3.05;;;;;;;;;;4970399;28;20180;-73
2023/05/26 09:01:53;;;;;;;10.00;3.45;;;;;;;;;;4971156;28;20244;-73
2023/05/26 09:04:18;;;;;;;12.13;2.95;;;;;;;;;;4973142;28;20267;-72
2023/05/26 09:06:45;;;;;;;11.52;2.95;;;;;;;;;;4971492;28;20696;-73
2023/05/26 09:09:11;;;;;;;15.00;3.40;;;;;;;;;;4972666;28;20187;-71
2023/05/26 09:11:39;;;;;;;14.85;3.42;;;;;;;;;;4971532;28;20650;-72
2023/05/26 09:14:04;;;;;;;8.18;2.42;;;;;;;;;;4967668;28;20190;-72
2023/05/26 09:16:30;;;;;;;10.23;2.58;;;;;;;;;;4970284;28;20205;-73
2023/05/26 09:18:58;;;;;;;9.73;3.50;;;;;;;;;;4973495;28;20662;-72
2023/05/26 09:21:27;;;;;;;7.18;2.70;;;;;;;;;;4974771;28;20172;-73
2023/05/26 09:23:55;;;;;;;9.00;2.90;;;;;;;;;;4974963;28;20179;-73
2023/05/26 09:26:25;;;;;;;11.07;2.42;;;;;;;;;;4972844;28;20216;-73
2023/05/26 09:28:52;;;;;;;5.72;2.75;;;;;;;;;;4974218;28;20172;-73
2023/05/26 09:31:17;;;;;;;19.63;3.20;;;;;;;;;;4973154;28;20179;-72
2023/05/26 09:33:48;;;;;;;13.90;3.13;;;;;;;;;;4974585;28;20180;-73
2023/05/26 09:36:16;;;;;;;8.18;2.60;;;;;;;;;;4969222;28;20196;-71
2023/05/26 09:38:42;;;;;;;8.60;2.97;;;;;;;;;;4973474;28;20168;-71
2023/05/26 09:41:07;;;;;;;11.05;2.90;;;;;;;;;;4974152;28;20223;-72
2023/05/26 09:43:33;;;;;;;10.30;3.50;;;;;;;;;;4974189;28;20343;-71
2023/05/26 09:45:59;;;;;;;15.82;3.08;;;;;;;;;;4968116;28;20204;-69
2023/05/26 09:48:24;;;;;;;12.57;3.03;;;;;;;;;;4974049;28;20287;-72
2023/05/26 09:50:50;;;;;;;13.60;3.22;;;;;;;;;;4972869;28;20212;-71
2023/05/26 09:53:15;;;;;;;13.32;3.22;;;;;;;;;;4974412;28;20181;-73
2023/05/26 09:55:42;;;;;;;9.45;2.42;;;;;;;;;;4971413;28;20207;-72
2023/05/26 09:58:08;;;;;;;7.45;2.17;;;;;;;;;;4973617;28;20188;-72
2023/05/26 10:00:34;;;;;;;6.22;2.28;;;;;;;;;;4973506;28;20242;-75
2023/05/26 10:03:03;;;;;;;12.02;2.40;;;;;;;;;;4973756;28;20209;-71
2023/05/26 10:05:29;;;;;;;10.95;2.60;;;;;;;;;;4974651;28;20223;-71
2023/05/26 10:07:55;;;;;;;9.13;2.47;;;;;;;;;;4973600;28;20212;-72
2023/05/26 10:10:20;;;;;;;14.80;2.63;;;;;;;;;;4974730;28;20244;-71
2023/05/26 10:12:45;;;;;;;8.18;2.55;;;;;;;;;;4979982;28;20251;-71
2023/05/26 10:15:11;;;;;;;7.25;2.55;;;;;;;;;;4973256;28;20208;-71
2023/05/26 10:17:36;;;;;;;5.40;2.45;;;;;;;;;;4974465;28;20564;-72
2023/05/26 10:20:03;;;;;;;10.20;3.67;;;;;;;;;;4973434;28;20618;-72
2023/05/26 10:22:29;;;;;;;8.60;2.20;;;;;;;;;;4972753;28;20184;-72
2023/05/26 10:25:02;;;;;;;5.68;1.77;;;;;;;;;;4971955;28;20665;-71
2023/05/26 10:27:30;;;;;;;8.70;3.15;;;;;;;;;;4972830;28;20610;-72
2023/05/26 10:30:05;;;;;;;11.35;2.83;;;;;;;;;;4972945;28;20173;-72
2023/05/26 10:32:42;;;;;;;6.40;2.47;;;;;;;;;;4973001;28;20176;-72
2023/05/26 10:35:19;;;;;;;6.25;2.58;;;;;;;;;;4971469;28;20283;-72
2023/05/26 10:37:47;;;;;;;13.88;2.90;;;;;;;;;;4973371;28;20188;-72
2023/05/26 10:40:36;;;;;;;12.98;3.25;;;;;;;;;;4987688;28;20195;-71
2023/05/26 10:43:10;;;;;;;9.45;2.20;;;;;;;;;;4966084;28;20263;-72
2023/05/26 10:45:41;;;;;;;6.70;2.60;;;;;;;;;;4968640;28;20196;-71
2023/05/26 10:48:09;;;;;;;8.95;2.53;;;;;;;;;;4969517;28;20200;-73
2023/05/26 10:50:53;;;;;;;11.73;2.78;;;;;;;;;;4973164;28;20590;-73
2023/05/26 10:53:20;;;;;;;10.43;2.50;;;;;;;;;;4970082;28;20184;-73
2023/05/26 10:55:53;;;;;;;12.68;2.72;;;;;;;;;;4970692;28;20327;-72
2023/05/26 10:58:38;;;;;;;9.27;2.40;;;;;;;;;;4973356;28;20183;-73
2023/05/26 11:01:03;;;;;;;9.80;2.53;;;;;;;;;;4972867;28;20263;-72
2023/05/26 11:03:40;;;;;;;8.15;2.60;;;;;;;;;;4970141;28;20282;-72
2023/05/26 11:06:06;;;;;;;10.70;3.08;;;;;;;;;;4967399;28;20258;-73
2023/05/26 11:08:36;;;;;;;9.30;2.85;;;;;;;;;;4972523;28;20208;-73
2023/05/26 11:11:02;;;;;;;10.48;3.10;;;;;;;;;;4970272;28;20198;-73
2023/05/26 11:13:41;;;;;;;9.40;2.22;;;;;;;;;;4971565;28;20176;-73
2023/05/26 11:16:16;;;;;;;10.80;2.35;;;;;;;;;;4971451;28;20204;-73
2023/05/26 11:18:49;;;;;;;8.02;3.05;;;;;;;;;;4971614;28;20267;-73
2023/05/26 11:21:14;;;;;;;8.95;2.40;;;;;;;;;;4974352;28;20697;-73
2023/05/26 11:23:40;;;;;;;11.10;3.63;;;;;;;;;;4971645;28;20335;-73
2023/05/26 11:26:10;;;;;;;9.88;3.10;;;;;;;;;;4961478;28;20212;-72
2023/05/26 11:28:39;;;;;;;10.10;2.60;;;;;;;;;;4964580;28;20211;-73
2023/05/26 11:31:15;;;;;;;11.27;2.38;;;;;;;;;;4966582;28;20223;-73
2023/05/26 11:33:41;;;;;;;8.50;2.35;;;;;;;;;;4965136;28;20190;-73
2023/05/26 11:36:11;;;;;;;6.88;2.75;;;;;;;;;;4969487;28;20279;-73
2023/05/26 11:38:40;;;;;;;10.18;2.72;;;;;;;;;;4970344;28;20180;-73
2023/05/26 11:41:05;;;;;;;11.32;2.65;;;;;;;;;;4968000;28;20243;-73
2023/05/26 11:43:31;;;;;;;8.40;2.72;;;;;;;;;;4970834;28;20184;-73
2023/05/26 11:46:01;;;;;;;9.27;3.00;;;;;;;;;;4970341;28;20270;-72
2023/05/26 11:48:30;;;;;;;4.97;2.40;;;;;;;;;;4971243;28;20288;-73
2023/05/26 11:50:55;;;;;;;8.60;3.08;;;;;;;;;;4970947;28;20629;-73
2023/05/26 11:53:21;;;;;;;7.63;2.43;;;;;;;;;;4969862;28;20259;-73
2023/05/26 11:55:46;;;;;;;9.93;3.08;;;;;;;;;;4984911;28;20446;-72
2023/05/26 11:58:12;;;;;;;11.57;3.40;;;;;;;;;;4968894;28;20195;-72
2023/05/26 12:00:38;;;;;;;8.10;2.90;;;;;;;;;;4970675;28;20410;-73
2023/05/26 12:03:03;;;;;;;8.57;2.50;;;;;;;;;;4976381;28;20180;-73
2023/05/26 12:05:29;;;;;;;7.25;2.53;;;;;;;;;;4983907;28;20223;-72
2023/05/26 12:08:10;;;;;;;11.43;3.45;;;;;;;;;;4969653;28;20692;-73
2023/05/26 12:10:40;;;;;;;11.02;3.00;;;;;;;;;;4970508;28;20176;-73
2023/05/26 12:13:05;;;;;;;9.27;3.35;;;;;;;;;;4968649;28;20176;-73
2023/05/26 12:15:30;;;;;;;13.95;3.10;;;;;;;;;;4969474;28;20254;-73
2023/05/26 12:18:00;;;;;;;9.13;2.87;;;;;;;;;;4971080;28;20192;-72
2023/05/26 12:20:26;;;;;;;8.55;2.70;;;;;;;;;;4970322;28;20410;-72
2023/05/26 12:22:51;;;;;;;5.85;2.63;;;;;;;;;;4969702;28;20666;-72
2023/05/26 12:25:26;;;;;;;7.57;2.78;;;;;;;;;;5004061;23;20217;-71
2023/05/26 12:27:51;;;;;;;8.13;2.10;;;;;;;;;;5008792;28;20210;-70
2023/05/26 12:30:20;;;;;;;11.48;3.50;;;;;;;;;;5007053;28;20671;-71
2023/05/26 12:32:45;;;;;;;12.70;2.80;;;;;;;;;;5006368;28;20180;-70
2023/05/26 12:35:11;;;;;;;8.63;2.50;;;;;;;;;;5001541;28;20206;-70
2023/05/26 12:37:37;;;;;;;11.40;3.05;;;;;;;;;;4990960;28;20172;-70
2023/05/26 12:40:02;;;;;;;7.30;2.70;;;;;;;;;;4989696;28;20179;-70
2023/05/26 12:42:27;;;;;;;8.55;2.95;;;;;;;;;;4989556;28;20176;-71
2023/05/26 12:44:52;;;;;;;10.37;2.57;;;;;;;;;;4990513;28;20234;-70
2023/05/26 12:47:18;;;;;;;7.32;2.20;;;;;;;;;;4990946;28;20545;-71
2023/05/26 12:49:43;;;;;;;5.47;2.55;;;;;;;;;;4993775;28;20254;-70
2023/05/26 12:52:08;;;;;;;10.37;3.37;;;;;;;;;;4989038;28;20203;-71
2023/05/26 12:54:33;;;;;;;11.80;3.40;;;;;;;;;;4993219;28;20520;-71
2023/05/26 12:56:59;;;;;;;6.43;2.20;;;;;;;;;;4994474;28;20949;-70
2023/05/26 12:59:24;;;;;;;6.32;2.13;;;;;;;;;;4998694;28;20429;-71
2023/05/26 13:01:49;;;;;;;10.88;2.33;;;;;;;;;;4994683;28;20179;-70
2023/05/26 13:04:15;;;;;;;10.75;3.13;;;;;;;;;;4993090;28;20211;-71
2023/05/26 13:06:40;;;;;;;10.88;3.15;;;;;;;;;;4994201;28;20243;-71
2023/05/26 13:09:05;;;;;;;5.88;2.42;;;;;;;;;;4997913;28;20171;-71
2023/05/26 13:11:30;;;;;;;7.97;2.35;;;;;;;;;;4994982;28;20183;-70
2023/05/26 13:13:56;;;;;;;8.52;2.60;;;;;;;;;;4992517;28;20191;-70
2023/05/26 13:16:22;;;;;;;8.18;2.97;;;;;;;;;;4993615;28;20215;-71
2023/05/26 13:18:47;;;;;;;8.52;2.20;;;;;;;;;;4996523;28;20176;-71
2023/05/26 13:21:13;;;;;;;7.97;2.90;;;;;;;;;;4997253;28;20202;-71
2023/05/26 13:23:38;;;;;;;9.35;2.88;;;;;;;;;;4995085;28;20187;-70
2023/05/26 13:26:03;;;;;;;3.92;1.65;;;;;;;;;;4991134;28;20208;-70
2023/05/26 13:28:28;;;;;;;11.60;1.95;;;;;;;;;;4993956;28;20287;-68
2023/05/26 13:30:53;;;;;;;11.80;2.80;;;;;;;;;;4991170;28;20183;-69
2023/05/26 13:33:19;;;;;;;6.73;2.07;;;;;;;;;;4992069;28;20190;-70
2023/05/26 13:35:44;;;;;;;6.00;1.80;;;;;;;;;;4994287;28;20421;-70
2023/05/26 13:38:09;;;;;;;9.68;2.20;;;;;;;;;;4992716;28;20237;-70
2023/05/26 13:40:34;;;;;;;9.98;2.13;;;;;;;;;;4994393;28;20230;-69
2023/05/26 13:43:00;;;;;;;10.20;2.67;;;;;;;;;;4992123;28;20176;-69
2023/05/26 13:45:25;;;;;;;7.35;3.42;;;;;;;;;;4993702;28;20199;-70
2023/05/26 13:47:50;;;;;;;5.50;2.08;;;;;;;;;;4994852;28;20211;-70
2023/05/26 13:50:16;;;;;;;8.50;2.50;;;;;;;;;;4995975;28;20234;-70
2023/05/26 13:52:41;;;;;;;6.60;2.42;;;;;;;;;;4992606;28;20188;-69
2023/05/26 13:55:07;;;;;;;8.82;1.85;;;;;;;;;;4992130;28;20188;-69
2023/05/26 13:57:32;;;;;;;9.25;2.05;;;;;;;;;;4989838;28;20180;-70
2023/05/26 13:59:58;;;;;;;8.80;2.08;;;;;;;;;;4996188;28;20179;-69
2023/05/26 14:02:23;;;;;;;8.57;2.45;;;;;;;;;;4992440;28;20183;-69
2023/05/26 14:04:48;;;;;;;8.27;2.40;;;;;;;;;;4993202;28;20193;-70
2023/05/26 14:07:14;;;;;;;6.78;2.30;;;;;;;;;;4993295;28;20460;-69
2023/05/26 14:09:39;;;;;;;6.13;1.85;;;;;;;;;;4993126;28;20167;-71
2023/05/26 14:12:06;;;;;;;4.32;1.45;;;;;;;;;;4988082;28;20176;-71
2023/05/26 14:14:31;;;;;;;4.55;1.85;;;;;;;;;;4991098;28;20180;-71
2023/05/26 14:16:57;;;;;;;6.80;2.40;;;;;;;;;;4992750;28;20202;-71
2023/05/26 14:19:22;;;;;;;8.07;1.80;;;;;;;;;;4993376;28;20175;-71
2023/05/26 14:21:47;;;;;;;8.57;2.13;;;;;;;;;;4993082;28;20187;-71
2023/05/26 14:24:13;;;;;;;9.60;3.10;;;;;;;;;;4992979;28;20405;-70
2023/05/26 14:26:39;;;;;;;6.85;2.22;;;;;;;;;;4988145;28;20559;-71
2023/05/26 14:29:04;;;;;;;7.78;2.50;;;;;;;;;;4988710;28;20179;-69